This is the latest recevied weather packets stored in our database for station/object OE-11204. If no packets are shown the sender has not sent any weather packets the latest 10 day(s).
| Time | Temp. | Humidity | Pressure | Rain* | Wind** | Luminosity | Snow |
|---|---|---|---|---|---|---|---|
| 1787954115 | 21.67° C | 60% | 1013.3 hPa | 0 mm | - | 0 W/m² | - |
| 1787953288 | 21.67° C | 60% | 1013.5 hPa | 0 mm | - | 0 W/m² | - |
| 1787952915 | 22.22° C | 56% | 1013.4 hPa | 0 mm | - | 0 W/m² | - |
| 1787952315 | 22.22° C | 60% | 1013.6 hPa | 0 mm | - | 0 W/m² | - |
| 1787951488 | 21.67° C | 63% | 1012.9 hPa | 0 mm | - | 0 W/m² | - |
| 1787951115 | 21.11° C | 68% | 1012.2 hPa | 0 mm | - | 0 W/m² | - |
| 1787950515 | 22.78° C | 56% | 1011.9 hPa | 0 mm | - | 0 W/m² | - |
| 1787949688 | 21.67° C | 68% | 1012.2 hPa | 0 mm | - | 0 W/m² | - |
| 1787949315 | 22.22° C | 63% | 1012.1 hPa | 0.51 mm | - | 0 W/m² | - |
| 1787948715 | 22.78° C | 59% | 1012 hPa | 0.51 mm | - | 0 W/m² | - |
| 1787947888 | 22.78° C | 56% | 1011.8 hPa | 0.51 mm | - | 0 W/m² | - |
| 1787947514 | 23.33° C | 54% | 1011.6 hPa | 0.51 mm | - | 0 W/m² | - |
| 1787946915 | 23.33° C | 56% | 1011.7 hPa | 0.51 mm | - | 0 W/m² | - |
| 1787946088 | 23.89° C | 58% | 1011.5 hPa | 0.51 mm | - | 0 W/m² | - |
| 1787945715 | 25.56° C | 46% | 1011.2 hPa | 0.51 mm | - | 0 W/m² | - |
| 1787945114 | 26.67° C | 50% | 1010 hPa | 0 mm | - | 0 W/m² | - |
| 1787944288 | 26.67° C | 49% | 1009.5 hPa | 0 mm | - | 0 W/m² | - |
| 1787943915 | 26.67° C | 50% | 1009.6 hPa | 0 mm | - | 0 W/m² | - |
| 1787943314 | 27.22° C | 45% | 1009.3 hPa | 0 mm | - | 0 W/m² | - |
| 1787942488 | 27.78° C | 43% | 1009.5 hPa | 0 mm | - | 0 W/m² | - |
| 1787941510 | 28.33° C | 39% | 1008.8 hPa | 0 mm | - | 0 W/m² | - |
| 1787940688 | 27.78° C | 45% | 1008.9 hPa | 0 mm | - | 0 W/m² | - |
| 1787940314 | 28.33° C | 42% | 1008.4 hPa | 0 mm | - | 6 W/m² | - |
| 1787939714 | 28.33° C | 40% | 1008.1 hPa | 0 mm | - | 6 W/m² | - |
| 1787938888 | 28.33° C | 41% | 1007.8 hPa | 0 mm | - | 6 W/m² | - |
* Rain latest hour (hover to see other rain measurements)
** Current wind speed in m/s (hover to see current wind gust speed)